Time;durP1;ratioP1;P1;durP2;ratioP2;P2;SDS_P1;SDS_P2;PMS_P1;PMS_P2;Temp;Humidity;BMP_temperature;BMP_pressure;BME280_temperature;BME280_humidity;BME280_pressure;Samples;Min_cycle;Max_cycle;Signal;HPM_P1;HPM_P2
2022/05/20 00:01:36;;;;;;;;;0.00;0.00;;;;;;;;4942574;28;45528;-77
2022/05/20 00:04:02;;;;;;;;;0.67;0.67;;;;;;;;4947106;28;45544;-77
2022/05/20 00:06:27;;;;;;;;;0.00;0.00;;;;;;;;4925988;28;45401;-76
2022/05/20 00:08:53;;;;;;;;;2.00;0.00;;;;;;;;4941404;28;45426;-78
2022/05/20 00:11:18;;;;;;;;;2.33;0.33;;;;;;;;4942750;28;46641;-78
2022/05/20 00:13:45;;;;;;;;;0.00;0.00;;;;;;;;4941002;28;45874;-78
2022/05/20 00:16:10;;;;;;;;;1.00;1.00;;;;;;;;4944342;28;45354;-78
2022/05/20 00:18:35;;;;;;;;;0.67;0.00;;;;;;;;4943629;28;46111;-79
2022/05/20 00:21:01;;;;;;;;;1.00;1.00;;;;;;;;4942832;28;45696;-77
2022/05/20 00:23:26;;;;;;;;;1.00;1.00;;;;;;;;4949474;28;45699;-77
2022/05/20 00:25:53;;;;;;;;;0.33;0.33;;;;;;;;4959081;28;45445;-77
2022/05/20 00:28:26;;;;;;;;;0.00;0.00;;;;;;;;4957630;28;46074;-77
2022/05/20 00:31:04;;;;;;;;;1.67;1.00;;;;;;;;4943543;28;45408;-76
2022/05/20 00:33:30;;;;;;;;;1.33;0.33;;;;;;;;4946098;28;45402;-77
2022/05/20 00:35:56;;;;;;;;;0.00;0.00;;;;;;;;4947388;28;45633;-78
2022/05/20 00:38:21;;;;;;;;;2.67;0.00;;;;;;;;4943909;28;45492;-76
2022/05/20 00:40:48;;;;;;;;;0.00;0.00;;;;;;;;4943695;28;45516;-78
2022/05/20 00:43:16;;;;;;;;;0.00;0.00;;;;;;;;4946763;28;45437;-78
2022/05/20 00:45:42;;;;;;;;;1.00;1.00;;;;;;;;4943644;28;45735;-78
2022/05/20 00:48:08;;;;;;;;;0.33;0.33;;;;;;;;4944339;28;45460;-77
2022/05/20 00:50:34;;;;;;;;;0.00;0.00;;;;;;;;4943249;28;45711;-77
2022/05/20 00:52:59;;;;;;;;;0.00;0.00;;;;;;;;4945292;28;45354;-78
2022/05/20 00:55:25;;;;;;;;;0.00;0.00;;;;;;;;4958404;28;45472;-77
2022/05/20 00:57:52;;;;;;;;;0.00;0.00;;;;;;;;4945370;28;45462;-78
2022/05/20 01:00:19;;;;;;;;;0.00;0.00;;;;;;;;4959164;28;47395;-75
2022/05/20 01:02:46;;;;;;;;;0.00;0.00;;;;;;;;4946838;28;44884;-79
2022/05/20 01:05:17;;;;;;;;;0.00;0.00;;;;;;;;4941870;28;44849;-77
2022/05/20 01:07:43;;;;;;;;;2.00;1.00;;;;;;;;4941093;28;45464;-77
2022/05/20 01:10:09;;;;;;;;;1.00;1.00;;;;;;;;4943159;28;45485;-78
2022/05/20 01:12:34;;;;;;;;;1.00;0.00;;;;;;;;4942561;28;45808;-78
2022/05/20 01:14:59;;;;;;;;;2.33;1.00;;;;;;;;4958349;28;45859;-78
2022/05/20 01:17:25;;;;;;;;;0.00;0.00;;;;;;;;4941517;28;45656;-77
2022/05/20 01:19:54;;;;;;;;;3.00;1.00;;;;;;;;4922483;28;47049;-79
2022/05/20 01:22:35;;;;;;;;;0.00;0.00;;;;;;;;4923995;28;45398;-77
2022/05/20 01:25:01;;;;;;;;;1.00;1.00;;;;;;;;4921938;28;45474;-75
2022/05/20 01:27:26;;;;;;;;;0.00;0.00;;;;;;;;4923382;28;45419;-78
2022/05/20 01:29:51;;;;;;;;;0.00;0.00;;;;;;;;4922242;28;45403;-77
2022/05/20 01:32:17;;;;;;;;;2.33;0.00;;;;;;;;4934950;28;45589;-77
2022/05/20 01:34:42;;;;;;;;;1.00;1.00;;;;;;;;4943867;28;45402;-77
2022/05/20 01:37:07;;;;;;;;;0.00;0.00;;;;;;;;4942034;28;45414;-78
2022/05/20 01:39:33;;;;;;;;;2.33;0.00;;;;;;;;4926325;28;46664;-77
2022/05/20 01:42:04;;;;;;;;;3.00;0.00;;;;;;;;4942294;28;45918;-78
2022/05/20 01:44:29;;;;;;;;;0.00;0.00;;;;;;;;4943987;28;45348;-78
2022/05/20 01:47:01;;;;;;;;;0.00;0.00;;;;;;;;4942353;28;45494;-77
2022/05/20 01:49:33;;;;;;;;;1.33;0.67;;;;;;;;4941985;28;45462;-77
2022/05/20 01:52:04;;;;;;;;;0.67;0.67;;;;;;;;4925327;28;45430;-78
2022/05/20 01:54:48;;;;;;;;;0.67;0.67;;;;;;;;4940223;28;45457;-77
2022/05/20 01:57:17;;;;;;;;;0.67;0.67;;;;;;;;4941599;28;46537;-77
2022/05/20 01:59:46;;;;;;;;;0.00;0.00;;;;;;;;4942354;28;45687;-76
2022/05/20 02:02:16;;;;;;;;;1.00;0.00;;;;;;;;4931402;28;45501;-77
2022/05/20 02:04:51;;;;;;;;;0.67;0.67;;;;;;;;4943420;28;45874;-79
2022/05/20 02:07:20;;;;;;;;;0.33;0.33;;;;;;;;4941801;28;45370;-76
2022/05/20 02:10:01;;;;;;;;;0.00;0.00;;;;;;;;4941736;28;46581;-78
2022/05/20 02:12:28;;;;;;;;;0.00;0.00;;;;;;;;4942200;28;45481;-78
2022/05/20 02:15:04;;;;;;;;;0.00;0.00;;;;;;;;4941447;28;45777;-77
2022/05/20 02:17:33;;;;;;;;;1.00;1.00;;;;;;;;4957021;28;46133;-79
2022/05/20 02:20:09;;;;;;;;;1.00;1.00;;;;;;;;4941692;28;45549;-78
2022/05/20 02:22:38;;;;;;;;;1.33;0.33;;;;;;;;4939949;28;45600;-78
2022/05/20 02:25:05;;;;;;;;;0.33;0.33;;;;;;;;4956289;28;45660;-79
2022/05/20 02:27:32;;;;;;;;;0.00;0.00;;;;;;;;4941572;28;45595;-77
2022/05/20 02:30:03;;;;;;;;;1.00;1.00;;;;;;;;4943292;28;45503;-77
2022/05/20 02:32:34;;;;;;;;;1.00;1.00;;;;;;;;4953836;28;45708;-76
2022/05/20 02:35:00;;;;;;;;;1.00;1.00;;;;;;;;4955463;28;45461;-76
2022/05/20 02:37:25;;;;;;;;;2.00;1.00;;;;;;;;4939755;28;45451;-75
2022/05/20 02:39:51;;;;;;;;;3.00;0.67;;;;;;;;4955033;28;47148;-77
2022/05/20 02:42:17;;;;;;;;;0.00;0.00;;;;;;;;4927658;28;45510;-78
2022/05/20 02:44:42;;;;;;;;;0.00;0.00;;;;;;;;4940925;28;45339;-76
2022/05/20 02:47:08;;;;;;;;;4.00;1.00;;;;;;;;4922393;28;46010;-77
2022/05/20 02:49:33;;;;;;;;;0.00;0.00;;;;;;;;4938689;28;46381;-80
2022/05/20 02:51:58;;;;;;;;;0.00;0.00;;;;;;;;4924118;28;45268;-78
2022/05/20 02:54:24;;;;;;;;;1.33;1.33;;;;;;;;4942264;28;45286;-78
2022/05/20 02:56:49;;;;;;;;;2.00;1.00;;;;;;;;4925159;28;45619;-78
2022/05/20 03:04:46;;;;;;;;;0.00;0.00;;;;;;;;4942833;28;45908;-78
2022/05/20 03:07:13;;;;;;;;;1.00;1.00;;;;;;;;4941396;28;45476;-78
2022/05/20 03:09:39;;;;;;;;;0.67;0.00;;;;;;;;4956898;28;47521;-78
2022/05/20 03:12:05;;;;;;;;;1.33;1.33;;;;;;;;4956935;28;45838;-77
2022/05/20 03:14:30;;;;;;;;;2.00;2.00;;;;;;;;4956742;28;45480;-76
2022/05/20 03:16:58;;;;;;;;;2.00;1.00;;;;;;;;4940192;28;45811;-76
2022/05/20 03:19:23;;;;;;;;;1.00;1.00;;;;;;;;4939225;28;46323;-80
2022/05/20 03:21:50;;;;;;;;;1.67;1.67;;;;;;;;4943356;28;45351;-80
2022/05/20 03:24:16;;;;;;;;;1.00;1.00;;;;;;;;4941280;28;45383;-77
2022/05/20 03:26:41;;;;;;;;;0.33;0.33;;;;;;;;4940142;28;45390;-76
2022/05/20 03:29:06;;;;;;;;;0.00;0.00;;;;;;;;4939541;28;46669;-78
2022/05/20 03:31:33;;;;;;;;;3.67;1.00;;;;;;;;4940774;28;45577;-77
2022/05/20 03:34:05;;;;;;;;;1.33;0.00;;;;;;;;4923354;28;45499;-77
2022/05/20 03:36:30;;;;;;;;;1.67;1.00;;;;;;;;4939289;28;46623;-78
2022/05/20 03:38:55;;;;;;;;;0.00;0.00;;;;;;;;4922680;28;46169;-77
2022/05/20 03:41:21;;;;;;;;;4.00;1.67;;;;;;;;4939246;28;45473;-77
2022/05/20 03:43:46;;;;;;;;;1.00;1.00;;;;;;;;4939782;28;45399;-77
2022/05/20 03:46:11;;;;;;;;;1.67;0.67;;;;;;;;4940467;28;45408;-82
2022/05/20 03:48:36;;;;;;;;;1.00;1.00;;;;;;;;4940746;28;45569;-82
2022/05/20 03:51:12;;;;;;;;;0.00;0.00;;;;;;;;4940702;28;45570;-78
2022/05/20 03:53:38;;;;;;;;;2.00;1.00;;;;;;;;4942509;28;45442;-80
2022/05/20 03:56:03;;;;;;;;;3.33;1.67;;;;;;;;4946385;28;45482;-78
2022/05/20 03:58:29;;;;;;;;;4.00;2.67;;;;;;;;4943749;28;46401;-79
2022/05/20 04:03:43;;;;;;;;;3.00;2.00;;;;;;;;4935299;28;45455;-77
2022/05/20 04:06:09;;;;;;;;;1.67;1.67;;;;;;;;4934371;28;44816;-77
2022/05/20 04:08:34;;;;;;;;;4.00;4.00;;;;;;;;4936511;28;46227;-76
2022/05/20 04:11:00;;;;;;;;;1.00;1.00;;;;;;;;4940030;28;45688;-76
2022/05/20 04:13:26;;;;;;;;;3.33;3.00;;;;;;;;4941409;28;45953;-77
2022/05/20 04:15:54;;;;;;;;;2.67;2.67;;;;;;;;4934985;28;45434;-76
2022/05/20 04:18:19;;;;;;;;;6.00;2.00;;;;;;;;4924006;28;46497;-77
2022/05/20 04:20:44;;;;;;;;;4.00;2.67;;;;;;;;4933012;28;46651;-72
2022/05/20 04:23:09;;;;;;;;;2.00;2.00;;;;;;;;4925588;28;45276;-74
2022/05/20 04:25:35;;;;;;;;;4.33;1.33;;;;;;;;4925784;28;45482;-73
2022/05/20 04:28:00;;;;;;;;;2.33;2.00;;;;;;;;4915401;28;46923;-74
2022/05/20 04:30:25;;;;;;;;;2.00;1.00;;;;;;;;4909033;28;45562;-75
2022/05/20 04:32:51;;;;;;;;;3.00;2.00;;;;;;;;4924235;28;46537;-76
2022/05/20 04:35:16;;;;;;;;;2.00;1.00;;;;;;;;4924055;28;45529;-72
2022/05/20 04:37:41;;;;;;;;;2.00;2.00;;;;;;;;4929549;28;46139;-74
2022/05/20 04:40:07;;;;;;;;;1.33;1.33;;;;;;;;4928185;28;45554;-77
2022/05/20 04:48:03;;;;;;;;;3.00;2.00;;;;;;;;4926172;28;45538;-74
2022/05/20 04:50:29;;;;;;;;;1.67;1.67;;;;;;;;4926643;28;45964;-74
2022/05/20 04:52:54;;;;;;;;;3.00;1.33;;;;;;;;4917262;28;45762;-73
2022/05/20 04:55:19;;;;;;;;;2.00;2.00;;;;;;;;4907833;28;45843;-75
2022/05/20 04:57:49;;;;;;;;;4.00;2.00;;;;;;;;4930341;28;46877;-73
2022/05/20 05:00:25;;;;;;;;;2.33;2.00;;;;;;;;4922155;28;45491;-75
2022/05/20 05:02:51;;;;;;;;;4.00;3.00;;;;;;;;4928575;28;45062;-75
2022/05/20 05:05:25;;;;;;;;;3.00;3.00;;;;;;;;4925173;28;45741;-81
2022/05/20 05:07:52;;;;;;;;;2.00;2.00;;;;;;;;4910130;28;46916;-76
2022/05/20 05:10:26;;;;;;;;;3.33;3.33;;;;;;;;4930915;28;45344;-79
2022/05/20 05:12:51;;;;;;;;;1.33;1.33;;;;;;;;4923325;28;45693;-77
2022/05/20 05:15:17;;;;;;;;;3.67;3.67;;;;;;;;4938648;28;45588;-77
2022/05/20 05:20:27;;;;;;;;;3.33;2.67;;;;;;;;4926752;28;45870;-77
2022/05/20 05:22:53;;;;;;;;;5.00;3.00;;;;;;;;4915655;28;45487;-76
2022/05/20 05:25:25;;;;;;;;;4.33;4.33;;;;;;;;4927229;28;45812;-76
2022/05/20 05:27:57;;;;;;;;;3.50;2.25;;;;;;;;4936082;28;45471;-81
2022/05/20 05:30:22;;;;;;;;;3.00;3.00;;;;;;;;4927782;28;46027;-81
2022/05/20 05:32:48;;;;;;;;;2.33;2.00;;;;;;;;5120630;23;45761;-82
2022/05/20 05:35:18;;;;;;;;;0.33;0.33;;;;;;;;4933876;28;45528;-80
2022/05/20 05:37:44;;;;;;;;;5.00;2.67;;;;;;;;4953935;28;45523;-82
2022/05/20 05:40:11;;;;;;;;;3.00;3.00;;;;;;;;4954378;28;45397;-78
2022/05/20 05:42:37;;;;;;;;;3.00;3.00;;;;;;;;4953373;28;45456;-78
2022/05/20 05:45:03;;;;;;;;;7.67;2.67;;;;;;;;4940982;28;46239;-78
2022/05/20 05:47:28;;;;;;;;;6.00;4.00;;;;;;;;4952820;28;45516;-77
2022/05/20 05:49:54;;;;;;;;;4.33;3.67;;;;;;;;4953108;28;45553;-77
2022/05/20 05:52:19;;;;;;;;;3.67;3.00;;;;;;;;4949471;28;45833;-79
2022/05/20 05:54:44;;;;;;;;;3.33;2.33;;;;;;;;4950920;28;45776;-79
2022/05/20 05:57:09;;;;;;;;;3.67;3.67;;;;;;;;4955196;28;46207;-79
2022/05/20 05:59:37;;;;;;;;;8.00;4.00;;;;;;;;4937629;28;45451;-77
2022/05/20 06:02:03;;;;;;;;;4.33;3.33;;;;;;;;4945836;28;45431;-79
2022/05/20 06:04:28;;;;;;;;;7.67;5.00;;;;;;;;4929585;28;45606;-80
2022/05/20 06:06:54;;;;;;;;;6.00;5.00;;;;;;;;4949971;28;46848;-79
2022/05/20 06:09:19;;;;;;;;;4.67;3.33;;;;;;;;4958849;28;45694;-81
2022/05/20 06:11:45;;;;;;;;;6.00;4.67;;;;;;;;4948740;28;45493;-80
2022/05/20 06:14:10;;;;;;;;;9.33;5.00;;;;;;;;4954994;28;46026;-83
2022/05/20 06:16:35;;;;;;;;;3.67;3.67;;;;;;;;4950484;28;45975;-83
2022/05/20 06:19:03;;;;;;;;;5.33;3.33;;;;;;;;4935102;28;45524;-83
2022/05/20 06:21:30;;;;;;;;;6.00;3.67;;;;;;;;4940966;28;45562;-85
2022/05/20 06:23:56;;;;;;;;;3.67;2.67;;;;;;;;4956848;28;45967;-84
2022/05/20 06:26:21;;;;;;;;;3.67;3.67;;;;;;;;4957924;28;46024;-86
2022/05/20 06:28:49;;;;;;;;;5.00;3.33;;;;;;;;4956855;28;45562;-84
2022/05/20 06:31:15;;;;;;;;;5.67;4.67;;;;;;;;4946221;28;45425;-84
2022/05/20 06:33:40;;;;;;;;;6.33;5.33;;;;;;;;4934801;28;45580;-85
2022/05/20 06:41:34;;;;;;;;;6.67;5.33;;;;;;;;4956414;28;45694;-85
2022/05/20 06:44:00;;;;;;;;;8.00;4.00;;;;;;;;4933703;28;44947;-82
2022/05/20 06:46:28;;;;;;;;;6.33;5.33;;;;;;;;4967148;28;47146;-85
2022/05/20 06:48:55;;;;;;;;;5.33;5.33;;;;;;;;4943091;28;45333;-85
2022/05/20 06:51:23;;;;;;;;;5.33;5.33;;;;;;;;4943194;28;45391;-84
2022/05/20 06:53:51;;;;;;;;;5.00;5.00;;;;;;;;4938734;28;45988;-84
2022/05/20 06:56:21;;;;;;;;;7.33;5.33;;;;;;;;4937980;28;45580;-83
2022/05/20 06:58:46;;;;;;;;;8.67;6.67;;;;;;;;4934861;28;45881;-84
2022/05/20 07:01:13;;;;;;;;;11.00;11.00;;;;;;;;4947093;28;45946;-83
2022/05/20 07:03:39;;;;;;;;;14.33;10.67;;;;;;;;4942404;28;45642;-83
2022/05/20 07:06:05;;;;;;;;;9.67;9.33;;;;;;;;4929051;28;46450;-83
2022/05/20 07:08:30;;;;;;;;;9.00;9.00;;;;;;;;4944690;28;45958;-87
2022/05/20 07:10:56;;;;;;;;;8.00;6.67;;;;;;;;4939917;28;45807;-86
2022/05/20 07:13:21;;;;;;;;;8.00;8.00;;;;;;;;4954302;28;45480;-85
2022/05/20 07:15:48;;;;;;;;;5.00;5.00;;;;;;;;4943254;28;47283;-82
2022/05/20 07:18:13;;;;;;;;;9.33;9.00;;;;;;;;4933189;28;45775;-81
2022/05/20 07:20:38;;;;;;;;;10.33;6.67;;;;;;;;4933446;28;45467;-81
2022/05/20 07:23:04;;;;;;;;;8.67;7.67;;;;;;;;4951729;28;45552;-78
2022/05/20 07:25:30;;;;;;;;;12.33;12.00;;;;;;;;4951409;28;46835;-81
2022/05/20 07:27:59;;;;;;;;;12.67;9.00;;;;;;;;4933168;28;45939;-81
2022/05/20 07:30:25;;;;;;;;;11.00;8.00;;;;;;;;4953116;28;45852;-80
2022/05/20 07:32:51;;;;;;;;;7.33;7.33;;;;;;;;4937483;28;46969;-80
2022/05/20 07:35:16;;;;;;;;;12.00;7.33;;;;;;;;4955007;28;47358;-80
2022/05/20 07:37:42;;;;;;;;;11.33;7.67;;;;;;;;4955385;28;45773;-81
2022/05/20 07:40:07;;;;;;;;;7.33;7.00;;;;;;;;4954524;28;45531;-81
2022/05/20 07:42:33;;;;;;;;;10.00;8.67;;;;;;;;4942806;28;45713;-80
2022/05/20 07:44:58;;;;;;;;;10.00;8.67;;;;;;;;4954666;28;45840;-81
2022/05/20 07:47:26;;;;;;;;;12.00;9.67;;;;;;;;4953727;28;45926;-81
2022/05/20 07:49:51;;;;;;;;;4.67;4.33;;;;;;;;4955258;28;45584;-81
2022/05/20 07:55:01;;;;;;;;;9.33;7.67;;;;;;;;4954987;28;45768;-81
2022/05/20 07:57:27;;;;;;;;;8.00;8.00;;;;;;;;4934348;28;45849;-81
2022/05/20 07:59:53;;;;;;;;;14.67;11.00;;;;;;;;4935515;28;45816;-81
2022/05/20 08:02:21;;;;;;;;;8.33;7.33;;;;;;;;4938891;28;45810;-82
2022/05/20 08:04:56;;;;;;;;;12.67;9.67;;;;;;;;4954490;28;45442;-80
2022/05/20 08:07:33;;;;;;;;;14.67;12.33;;;;;;;;4933361;28;45452;-79
2022/05/20 08:10:00;;;;;;;;;14.00;12.00;;;;;;;;4933767;28;45485;-79
2022/05/20 08:12:25;;;;;;;;;18.67;12.33;;;;;;;;4933607;28;46048;-80
2022/05/20 08:14:50;;;;;;;;;12.00;11.33;;;;;;;;4958062;28;45849;-81
2022/05/20 08:17:18;;;;;;;;;9.00;9.00;;;;;;;;4941283;28;45507;-79
2022/05/20 08:19:44;;;;;;;;;14.00;12.00;;;;;;;;4945215;28;45442;-80
2022/05/20 08:22:09;;;;;;;;;13.00;10.00;;;;;;;;4953352;28;45888;-79
2022/05/20 08:24:34;;;;;;;;;18.67;15.33;;;;;;;;4953679;28;45774;-79
2022/05/20 08:27:00;;;;;;;;;15.33;12.33;;;;;;;;4953864;28;45485;-78
2022/05/20 08:29:25;;;;;;;;;12.67;12.67;;;;;;;;4953452;28;45782;-77
2022/05/20 08:31:50;;;;;;;;;12.33;10.33;;;;;;;;4949897;28;45338;-78
2022/05/20 08:34:16;;;;;;;;;13.00;10.00;;;;;;;;4943274;28;45589;-79
2022/05/20 08:36:41;;;;;;;;;12.67;10.67;;;;;;;;4934821;28;45972;-79
2022/05/20 08:39:10;;;;;;;;;7.33;7.33;;;;;;;;4953227;28;45715;-78
2022/05/20 08:41:54;;;;;;;;;12.00;8.33;;;;;;;;4953757;28;45834;-80
2022/05/20 08:44:20;;;;;;;;;10.00;8.33;;;;;;;;4953676;28;45865;-80
2022/05/20 08:46:46;;;;;;;;;13.00;12.33;;;;;;;;4953118;28;45384;-79
2022/05/20 08:49:14;;;;;;;;;12.67;12.33;;;;;;;;4937023;28;45466;-77
2022/05/20 08:51:41;;;;;;;;;16.00;13.00;;;;;;;;4948261;28;45988;-77
2022/05/20 08:54:07;;;;;;;;;10.33;10.33;;;;;;;;4952845;28;45524;-76
2022/05/20 08:56:36;;;;;;;;;14.00;11.67;;;;;;;;4952999;28;45704;-76
2022/05/20 08:59:02;;;;;;;;;16.00;13.33;;;;;;;;4952385;28;45971;-76
2022/05/20 09:01:33;;;;;;;;;12.00;11.67;;;;;;;;4934826;28;47440;-77
2022/05/20 09:03:59;;;;;;;;;16.67;12.33;;;;;;;;4943623;28;45844;-77
2022/05/20 09:06:25;;;;;;;;;16.67;12.33;;;;;;;;4936206;28;45934;-77
2022/05/20 09:09:11;;;;;;;;;15.67;12.33;;;;;;;;4950638;28;45476;-77
2022/05/20 09:11:37;;;;;;;;;12.00;10.00;;;;;;;;4953066;28;45480;-79
2022/05/20 09:17:09;;;;;;;;;16.33;15.33;;;;;;;;4952982;28;45455;-79
2022/05/20 09:19:35;;;;;;;;;14.33;12.67;;;;;;;;4953810;28;45890;-81
2022/05/20 09:22:24;;;;;;;;;15.00;12.67;;;;;;;;4954007;28;45939;-82
2022/05/20 09:24:49;;;;;;;;;12.33;12.00;;;;;;;;4937695;28;45825;-81
2022/05/20 09:27:20;;;;;;;;;13.00;13.00;;;;;;;;4959606;28;45744;-82
2022/05/20 09:29:55;;;;;;;;;15.00;14.33;;;;;;;;4944099;28;45772;-80
2022/05/20 09:32:26;;;;;;;;;15.00;12.67;;;;;;;;4946446;28;46055;-81
2022/05/20 09:35:11;;;;;;;;;14.00;12.67;;;;;;;;4963125;28;45512;-82
2022/05/20 09:37:36;;;;;;;;;13.67;12.33;;;;;;;;4966488;28;45318;-81
2022/05/20 09:40:21;;;;;;;;;24.33;19.67;;;;;;;;4942768;28;45812;-82
2022/05/20 09:43:00;;;;;;;;;16.00;14.00;;;;;;;;4966736;28;44850;-85
2022/05/20 09:45:26;;;;;;;;;24.00;19.67;;;;;;;;4955447;28;45822;-75
2022/05/20 09:47:53;;;;;;;;;19.33;18.00;;;;;;;;4951913;28;45729;-76
2022/05/20 09:50:24;;;;;;;;;18.00;16.67;;;;;;;;4951853;28;45712;-77
2022/05/20 09:52:53;;;;;;;;;20.67;17.67;;;;;;;;4956281;28;45728;-81
2022/05/20 09:55:29;;;;;;;;;18.67;16.33;;;;;;;;4955987;28;45523;-83
2022/05/20 09:57:56;;;;;;;;;19.33;16.33;;;;;;;;4955924;28;45634;-82
2022/05/20 10:00:26;;;;;;;;;16.67;14.33;;;;;;;;4938463;28;45668;-79
2022/05/20 10:02:56;;;;;;;;;21.00;17.00;;;;;;;;4948686;28;46167;-78
2022/05/20 10:05:34;;;;;;;;;19.00;14.67;;;;;;;;4932321;28;45536;-79
2022/05/20 10:08:02;;;;;;;;;21.67;18.67;;;;;;;;4935452;28;45808;-83
2022/05/20 10:10:43;;;;;;;;;16.33;13.33;;;;;;;;4953541;28;45472;-82
2022/05/20 10:13:13;;;;;;;;;15.00;15.00;;;;;;;;4941756;28;45748;-81
2022/05/20 10:15:42;;;;;;;;;20.33;17.00;;;;;;;;4921505;28;48125;-81
2022/05/20 10:18:12;;;;;;;;;13.33;11.00;;;;;;;;4942891;28;45307;-90
2022/05/20 10:20:49;;;;;;;;;17.00;15.67;;;;;;;;4924676;28;46142;-81
2022/05/20 10:23:15;;;;;;;;;16.33;16.33;;;;;;;;4915086;28;46668;-80
2022/05/20 10:25:58;;;;;;;;;19.33;16.67;;;;;;;;4941253;28;45851;-81
2022/05/20 10:34:17;;;;;;;;;16.00;14.67;;;;;;;;4913030;28;45926;-79
2022/05/20 10:36:59;;;;;;;;;17.67;16.67;;;;;;;;4912032;28;45747;-80
2022/05/20 10:39:30;;;;;;;;;21.00;20.00;;;;;;;;4908896;28;45867;-81
2022/05/20 10:42:02;;;;;;;;;15.67;12.00;;;;;;;;4908024;28;45507;-78
2022/05/20 10:49:58;;;;;;;;;20.67;17.00;;;;;;;;4911415;28;45437;-80
2022/05/20 10:52:26;;;;;;;;;22.33;20.33;;;;;;;;4900887;28;45792;-81
2022/05/20 10:54:57;;;;;;;;;25.33;23.33;;;;;;;;4895960;28;46545;-80
2022/05/20 10:57:22;;;;;;;;;20.33;16.67;;;;;;;;4899840;28;45825;-81
2022/05/20 10:59:54;;;;;;;;;21.33;19.33;;;;;;;;4904335;28;46856;-81
2022/05/20 11:02:38;;;;;;;;;18.67;15.67;;;;;;;;4899031;28;45663;-81
2022/05/20 11:05:04;;;;;;;;;22.67;20.33;;;;;;;;4906583;28;45993;-82
2022/05/20 11:07:48;;;;;;;;;23.00;19.33;;;;;;;;4904600;28;45873;-80
2022/05/20 11:10:34;;;;;;;;;19.67;19.33;;;;;;;;4904338;28;46003;-82
2022/05/20 11:13:18;;;;;;;;;17.33;16.67;;;;;;;;4903288;28;45482;-81
2022/05/20 11:15:53;;;;;;;;;18.33;18.33;;;;;;;;4896263;28;46118;-83
2022/05/20 11:18:18;;;;;;;;;19.33;16.33;;;;;;;;4900288;28;46857;-80
2022/05/20 11:20:57;;;;;;;;;17.00;13.67;;;;;;;;4904696;28;45944;-82
2022/05/20 11:23:49;;;;;;;;;20.00;14.67;;;;;;;;4899278;28;45710;-80
2022/05/20 11:26:30;;;;;;;;;18.67;13.67;;;;;;;;4885728;28;45896;-81
2022/05/20 11:29:01;;;;;;;;;18.33;17.33;;;;;;;;4897408;29;45499;-81
2022/05/20 11:31:33;;;;;;;;;20.00;15.33;;;;;;;;4907335;28;45788;-81
2022/05/20 11:34:14;;;;;;;;;19.33;16.33;;;;;;;;4950724;28;45924;-80
2022/05/20 11:36:52;;;;;;;;;12.00;11.33;;;;;;;;4955000;28;45639;-80
2022/05/20 11:39:40;;;;;;;;;12.67;11.67;;;;;;;;4937586;28;45624;-80
2022/05/20 11:42:09;;;;;;;;;12.00;11.00;;;;;;;;4955864;28;45737;-79
2022/05/20 11:45:15;;;;;;;;;12.33;11.33;;;;;;;;4956181;28;45796;-81
2022/05/20 11:48:07;;;;;;;;;12.00;12.00;;;;;;;;4925676;28;46289;-80
2022/05/20 11:50:32;;;;;;;;;12.00;10.67;;;;;;;;4899558;28;48385;-81
2022/05/20 11:53:01;;;;;;;;;11.00;10.67;;;;;;;;4938446;28;45913;-80
2022/05/20 11:55:50;;;;;;;;;14.00;12.33;;;;;;;;4933784;28;45987;-80
2022/05/20 11:58:24;;;;;;;;;11.33;11.33;;;;;;;;4913847;28;46010;-81
2022/05/20 12:00:50;;;;;;;;;12.67;11.33;;;;;;;;4946775;28;45505;-83
2022/05/20 12:03:17;;;;;;;;;12.33;12.33;;;;;;;;4954212;28;45780;-82
2022/05/20 12:05:44;;;;;;;;;8.00;7.00;;;;;;;;4954268;28;45428;-82
2022/05/20 12:08:28;;;;;;;;;8.00;8.00;;;;;;;;4936956;28;47159;-82
2022/05/20 12:10:54;;;;;;;;;9.67;9.67;;;;;;;;4953697;28;45480;-81
2022/05/20 12:13:21;;;;;;;;;10.25;9.50;;;;;;;;4953600;28;45908;-81
2022/05/20 12:15:50;;;;;;;;;10.67;8.67;;;;;;;;4947041;28;45491;-81
2022/05/20 12:24:11;;;;;;;;;10.33;9.33;;;;;;;;4953007;28;45600;-83
2022/05/20 12:24:13;;;;;;;;;8.25;8.25;;;;;;;;4954321;28;45990;-81
2022/05/20 12:26:41;;;;;;;;;8.25;8.25;;;;;;;;4946325;28;46421;-82
2022/05/20 12:29:25;;;;;;;;;14.25;11.75;;;;;;;;4951601;28;45864;-81
2022/05/20 12:31:51;;;;;;;;;9.00;9.00;;;;;;;;4953928;28;45751;-81
2022/05/20 12:34:34;;;;;;;;;14.00;12.00;;;;;;;;4954732;28;46026;-82
2022/05/20 12:37:00;;;;;;;;;8.00;8.00;;;;;;;;4954810;28;46073;-82
2022/05/20 12:39:45;;;;;;;;;8.75;8.75;;;;;;;;4936840;28;45891;-82
2022/05/20 12:42:25;;;;;;;;;8.50;8.50;;;;;;;;4931104;28;48228;-81
2022/05/20 12:44:50;;;;;;;;;10.25;9.75;;;;;;;;4950772;28;45751;-82
2022/05/20 12:47:32;;;;;;;;;7.25;7.25;;;;;;;;4943610;28;45434;-82
2022/05/20 12:50:06;;;;;;;;;6.75;6.75;;;;;;;;4934984;28;45489;-81
2022/05/20 12:52:33;;;;;;;;;6.25;5.75;;;;;;;;4947676;28;46045;-83
2022/05/20 12:55:00;;;;;;;;;8.50;7.00;;;;;;;;4940566;28;45830;-83
2022/05/20 12:57:30;;;;;;;;;7.75;6.50;;;;;;;;4921950;28;45419;-82
2022/05/20 12:59:58;;;;;;;;;5.75;3.50;;;;;;;;4953291;28;45433;-81
2022/05/20 13:02:27;;;;;;;;;4.25;2.50;;;;;;;;4952515;28;46252;-81
2022/05/20 13:04:55;;;;;;;;;4.00;4.00;;;;;;;;4953159;28;45904;-83
2022/05/20 13:07:20;;;;;;;;;4.00;3.00;;;;;;;;4942799;28;45795;-82
2022/05/20 13:09:47;;;;;;;;;6.50;5.00;;;;;;;;4933172;28;45783;-82
2022/05/20 13:12:18;;;;;;;;;4.25;4.25;;;;;;;;4944499;28;45515;-81
2022/05/20 13:14:44;;;;;;;;;4.75;4.75;;;;;;;;4937680;28;45861;-82
2022/05/20 13:17:09;;;;;;;;;4.25;4.25;;;;;;;;4953127;28;45610;-81
2022/05/20 13:19:38;;;;;;;;;5.50;5.50;;;;;;;;4952256;28;45726;-80
2022/05/20 13:22:05;;;;;;;;;5.00;4.25;;;;;;;;4951793;28;45979;-81
2022/05/20 13:24:33;;;;;;;;;6.75;4.25;;;;;;;;4919589;28;46095;-81
2022/05/20 13:27:13;;;;;;;;;3.25;3.25;;;;;;;;4936712;28;46060;-81
2022/05/20 13:29:41;;;;;;;;;5.00;4.00;;;;;;;;4933354;28;45620;-80
2022/05/20 13:32:12;;;;;;;;;5.00;5.00;;;;;;;;4945265;28;45813;-82
2022/05/20 13:34:39;;;;;;;;;6.00;6.00;;;;;;;;4954875;28;45956;-81
2022/05/20 13:37:08;;;;;;;;;4.50;4.50;;;;;;;;4953982;28;45562;-81
2022/05/20 13:39:34;;;;;;;;;4.67;4.67;;;;;;;;4947439;28;45866;-81
2022/05/20 13:42:00;;;;;;;;;4.33;4.33;;;;;;;;4952225;28;46138;-82
2022/05/20 13:44:25;;;;;;;;;5.00;5.00;;;;;;;;4952388;28;45474;-80
2022/05/20 13:49:37;;;;;;;;;3.50;3.00;;;;;;;;4952967;28;45669;-80
2022/05/20 13:52:10;;;;;;;;;4.00;4.00;;;;;;;;4945290;28;47930;-81
2022/05/20 13:54:40;;;;;;;;;6.00;6.00;;;;;;;;4932789;28;45807;-82
2022/05/20 13:57:11;;;;;;;;;5.00;5.00;;;;;;;;4934449;28;45581;-80
2022/05/20 13:59:37;;;;;;;;;5.00;5.00;;;;;;;;4951744;28;45787;-80
2022/05/20 14:02:09;;;;;;;;;5.67;5.67;;;;;;;;4934161;28;46750;-81
2022/05/20 14:04:34;;;;;;;;;7.33;7.33;;;;;;;;4933318;28;46702;-82
2022/05/20 14:07:01;;;;;;;;;8.33;8.33;;;;;;;;4916266;28;45736;-82
2022/05/20 14:09:27;;;;;;;;;9.00;7.67;;;;;;;;4942500;28;45594;-82
2022/05/20 14:11:53;;;;;;;;;9.67;9.67;;;;;;;;4935567;28;46799;-80
2022/05/20 14:14:24;;;;;;;;;12.33;12.33;;;;;;;;4934221;28;45857;-81
2022/05/20 14:16:51;;;;;;;;;16.67;16.67;;;;;;;;4919946;28;45721;-82
2022/05/20 14:19:31;;;;;;;;;17.00;14.00;;;;;;;;4919624;28;45862;-82
2022/05/20 14:33:35;;;;;;;;;22.33;20.00;;;;;25.04;100.00;101399.81;5064909;27;45801;-77
2022/05/20 14:36:06;;;;;;;;;25.67;23.00;;;;;24.93;100.00;101417.88;5050942;28;45409;-77
2022/05/20 14:38:37;;;;;;;;;22.00;22.00;;;;;24.75;100.00;101417.41;5045784;28;45731;-77
2022/05/20 14:41:06;;;;;;;;;22.00;19.67;;;;;24.53;100.00;101403.72;5048787;28;45808;-79
2022/05/20 14:43:49;;;;;;;;;25.67;23.33;;;;;24.47;100.00;101424.50;5049363;28;45445;-76
2022/05/20 14:49:31;;;;;;;;;20.67;19.33;;;;;24.78;100.00;101428.03;5039115;28;45722;-75
2022/05/20 14:51:58;;;;;;;;;20.00;19.00;;;;;24.87;100.00;101430.25;5042303;28;46070;-79
2022/05/20 14:54:44;;;;;;;;;24.00;20.00;;;;;24.95;100.00;101447.28;5041979;28;45539;-83
2022/05/20 14:57:28;;;;;;;;;19.33;18.67;;;;;24.85;100.00;101456.63;5036947;28;45876;-85
2022/05/20 15:00:12;;;;;;;;;17.33;17.33;;;;;24.87;100.00;101456.34;5046330;27;45435;-81
2022/05/20 15:02:41;;;;;;;;;13.67;12.00;;;;;24.77;100.00;101454.41;5045286;28;46228;-83
2022/05/20 15:05:07;;;;;;;;;14.67;14.00;;;;;24.62;100.00;101457.28;5044700;28;45902;-81
2022/05/20 15:07:34;;;;;;;;;14.33;10.67;;;;;24.52;100.00;101474.13;5029057;28;45589;-81
2022/05/20 15:10:00;;;;;;;;;16.67;15.33;;;;;24.50;100.00;101480.84;5036253;28;45714;-80
2022/05/20 15:12:26;;;;;;;;;15.67;14.67;;;;;24.54;100.00;101472.72;5046878;28;45947;-80
2022/05/20 15:14:54;;;;;;;;;11.00;11.00;;;;;24.56;100.00;101481.66;5049084;28;45532;-81
2022/05/20 15:17:20;;;;;;;;;10.33;10.33;;;;;24.36;100.00;101487.31;5047808;28;46340;-80
2022/05/20 15:19:47;;;;;;;;;12.33;10.33;;;;;24.28;100.00;101494.34;5039530;28;45684;-79
2022/05/20 15:22:15;;;;;;;;;12.67;10.33;;;;;24.31;100.00;101490.97;5041790;28;45932;-80
2022/05/20 15:24:45;;;;;;;;;13.67;11.33;;;;;24.41;100.00;101487.31;5047160;28;45532;-81
2022/05/20 15:27:25;;;;;;;;;11.67;11.67;;;;;24.29;100.00;101499.69;5048837;28;45747;-82
2022/05/20 15:29:51;;;;;;;;;12.00;10.00;;;;;24.22;100.00;101501.97;5048234;28;45786;-81